sensor_id;sensor_type;location;lat;lon;timestamp;pressure;altitude;pressure_sealevel;temperature;humidity
65659;BME280;60181;53.258;6.932;2023-03-14T00:02:04;98786.39;;;14.15;59.98
65659;BME280;60181;53.258;6.932;2023-03-14T00:06:09;98782.62;;;14.14;59.90
65659;BME280;60181;53.258;6.932;2023-03-14T00:10:13;98780.50;;;14.13;59.95
65659;BME280;60181;53.258;6.932;2023-03-14T00:14:16;98779.11;;;14.13;59.91
65659;BME280;60181;53.258;6.932;2023-03-14T00:18:20;98775.06;;;14.13;59.86
65659;BME280;60181;53.258;6.932;2023-03-14T00:22:24;98771.20;;;14.17;59.34
65659;BME280;60181;53.258;6.932;2023-03-14T00:26:28;98769.14;;;14.22;59.38
65659;BME280;60181;53.258;6.932;2023-03-14T00:30:32;98768.31;;;14.26;59.36
65659;BME280;60181;53.258;6.932;2023-03-14T00:34:36;98766.62;;;14.30;59.40
65659;BME280;60181;53.258;6.932;2023-03-14T00:38:41;98765.59;;;14.34;59.32
65659;BME280;60181;53.258;6.932;2023-03-14T00:42:44;98763.25;;;14.36;59.48
65659;BME280;60181;53.258;6.932;2023-03-14T00:46:48;98759.89;;;14.36;59.63
65659;BME280;60181;53.258;6.932;2023-03-14T00:50:52;98757.65;;;14.37;59.68
65659;BME280;60181;53.258;6.932;2023-03-14T00:54:56;98756.51;;;14.37;59.58
65659;BME280;60181;53.258;6.932;2023-03-14T00:59:00;98753.66;;;14.35;59.94
65659;BME280;60181;53.258;6.932;2023-03-14T01:03:04;98749.76;;;14.32;60.09
65659;BME280;60181;53.258;6.932;2023-03-14T01:07:08;98745.19;;;14.30;60.17
65659;BME280;60181;53.258;6.932;2023-03-14T01:11:13;98740.01;;;14.28;60.13
65659;BME280;60181;53.258;6.932;2023-03-14T01:15:16;98736.41;;;14.27;60.12
65659;BME280;60181;53.258;6.932;2023-03-14T01:19:20;98733.33;;;14.26;60.16
65659;BME280;60181;53.258;6.932;2023-03-14T01:23:24;98731.21;;;14.25;60.11
65659;BME280;60181;53.258;6.932;2023-03-14T01:27:28;98729.42;;;14.24;60.14
65659;BME280;60181;53.258;6.932;2023-03-14T01:31:32;98728.12;;;14.23;60.16
65659;BME280;60181;53.258;6.932;2023-03-14T01:35:36;98726.29;;;14.23;60.20
65659;BME280;60181;53.258;6.932;2023-03-14T01:39:40;98725.78;;;14.25;59.65
65659;BME280;60181;53.258;6.932;2023-03-14T01:43:44;98726.05;;;14.28;59.72
65659;BME280;60181;53.258;6.932;2023-03-14T01:47:48;98726.17;;;14.30;59.75
65659;BME280;60181;53.258;6.932;2023-03-14T01:52:10;98726.84;;;14.33;60.00
65659;BME280;60181;53.258;6.932;2023-03-14T01:55:56;98725.55;;;14.37;59.67
65659;BME280;60181;53.258;6.932;2023-03-14T02:04:04;98724.17;;;14.40;59.80
65659;BME280;60181;53.258;6.932;2023-03-14T02:08:10;98722.27;;;14.40;59.82
65659;BME280;60181;53.258;6.932;2023-03-14T02:12:13;98719.70;;;14.41;59.81
65659;BME280;60181;53.258;6.932;2023-03-14T02:16:16;98716.19;;;14.42;59.79
65659;BME280;60181;53.258;6.932;2023-03-14T02:24:31;98711.19;;;14.42;59.95
65659;BME280;60181;53.258;6.932;2023-03-14T02:28:28;98707.46;;;14.42;59.95
65659;BME280;60181;53.258;6.932;2023-03-14T02:32:32;98705.74;;;14.42;60.03
65659;BME280;60181;53.258;6.932;2023-03-14T02:36:36;98705.45;;;14.44;59.69
65659;BME280;60181;53.258;6.932;2023-03-14T02:40:40;98703.02;;;14.50;59.57
65659;BME280;60181;53.258;6.932;2023-03-14T02:44:48;98700.37;;;14.54;59.75
65659;BME280;60181;53.258;6.932;2023-03-14T02:48:50;98697.63;;;14.56;60.03
65659;BME280;60181;53.258;6.932;2023-03-14T02:52:52;98695.88;;;14.56;60.17
65659;BME280;60181;53.258;6.932;2023-03-14T02:56:56;98694.69;;;14.55;60.37
65659;BME280;60181;53.258;6.932;2023-03-14T03:01:00;98691.56;;;14.54;60.33
65659;BME280;60181;53.258;6.932;2023-03-14T03:05:04;98688.67;;;14.51;60.58
65659;BME280;60181;53.258;6.932;2023-03-14T03:09:08;98684.61;;;14.48;60.75
65659;BME280;60181;53.258;6.932;2023-03-14T03:13:12;98680.88;;;14.46;60.70
65659;BME280;60181;53.258;6.932;2023-03-14T03:17:16;98678.24;;;14.45;60.57
65659;BME280;60181;53.258;6.932;2023-03-14T03:21:20;98676.36;;;14.45;60.81
65659;BME280;60181;53.258;6.932;2023-03-14T03:25:24;98674.08;;;14.44;60.78
65659;BME280;60181;53.258;6.932;2023-03-14T03:29:28;98673.60;;;14.43;60.91
65659;BME280;60181;53.258;6.932;2023-03-14T03:33:32;98673.95;;;14.42;60.94
65659;BME280;60181;53.258;6.932;2023-03-14T03:37:36;98674.28;;;14.42;60.99
65659;BME280;60181;53.258;6.932;2023-03-14T03:41:40;98673.42;;;14.44;60.89
65659;BME280;60181;53.258;6.932;2023-03-14T03:45:44;98673.50;;;14.47;60.87
65659;BME280;60181;53.258;6.932;2023-03-14T03:49:48;98675.66;;;14.46;61.46
65659;BME280;60181;53.258;6.932;2023-03-14T03:53:52;98678.61;;;14.43;61.78
65659;BME280;60181;53.258;6.932;2023-03-14T03:57:56;98680.03;;;14.38;62.01
65659;BME280;60181;53.258;6.932;2023-03-14T04:02:00;98681.03;;;14.34;62.09
65659;BME280;60181;53.258;6.932;2023-03-14T04:06:06;98681.06;;;14.29;62.54
65659;BME280;60181;53.258;6.932;2023-03-14T04:10:08;98680.70;;;14.27;62.18
65659;BME280;60181;53.258;6.932;2023-03-14T04:14:12;98679.21;;;14.23;62.31
65659;BME280;60181;53.258;6.932;2023-03-14T04:18:16;98678.86;;;14.20;62.34
65659;BME280;60181;53.258;6.932;2023-03-14T04:22:20;98679.88;;;14.17;62.35
65659;BME280;60181;53.258;6.932;2023-03-14T04:26:24;98680.77;;;14.15;62.34
65659;BME280;60181;53.258;6.932;2023-03-14T04:30:28;98681.16;;;14.12;62.37
65659;BME280;60181;53.258;6.932;2023-03-14T04:34:32;98680.80;;;14.10;62.34
65659;BME280;60181;53.258;6.932;2023-03-14T04:38:36;98680.67;;;14.08;62.37
65659;BME280;60181;53.258;6.932;2023-03-14T04:42:40;98680.55;;;14.06;62.34
65659;BME280;60181;53.258;6.932;2023-03-14T04:46:44;98679.99;;;14.04;62.42
65659;BME280;60181;53.258;6.932;2023-03-14T04:50:48;98677.96;;;14.03;62.41
65659;BME280;60181;53.258;6.932;2023-03-14T04:54:52;98674.29;;;14.01;62.46
65659;BME280;60181;53.258;6.932;2023-03-14T04:58:56;98671.51;;;14.00;62.51
65659;BME280;60181;53.258;6.932;2023-03-14T05:03:00;98669.06;;;13.99;62.53
65659;BME280;60181;53.258;6.932;2023-03-14T05:07:04;98667.00;;;13.98;62.55
65659;BME280;60181;53.258;6.932;2023-03-14T05:11:09;98664.98;;;13.97;62.63
65659;BME280;60181;53.258;6.932;2023-03-14T05:15:12;98662.29;;;13.96;62.66
65659;BME280;60181;53.258;6.932;2023-03-14T05:19:16;98658.03;;;13.95;62.66
65659;BME280;60181;53.258;6.932;2023-03-14T05:23:20;98653.54;;;13.94;62.64
65659;BME280;60181;53.258;6.932;2023-03-14T05:27:24;98648.35;;;13.93;62.72
65659;BME280;60181;53.258;6.932;2023-03-14T05:31:28;98644.03;;;13.92;62.66
65659;BME280;60181;53.258;6.932;2023-03-14T05:35:32;98641.82;;;13.91;62.66
65659;BME280;60181;53.258;6.932;2023-03-14T05:39:36;98638.31;;;13.90;63.02
65659;BME280;60181;53.258;6.932;2023-03-14T05:43:40;98635.82;;;13.95;62.57
65659;BME280;60181;53.258;6.932;2023-03-14T05:47:44;98633.56;;;13.97;62.99
65659;BME280;60181;53.258;6.932;2023-03-14T05:51:48;98632.72;;;13.97;63.25
65659;BME280;60181;53.258;6.932;2023-03-14T05:55:52;98631.89;;;13.97;63.11
65659;BME280;60181;53.258;6.932;2023-03-14T05:59:56;98631.23;;;13.97;63.14
65659;BME280;60181;53.258;6.932;2023-03-14T06:04:00;98630.41;;;13.97;63.12
65659;BME280;60181;53.258;6.932;2023-03-14T06:08:04;98630.24;;;13.97;63.20
65659;BME280;60181;53.258;6.932;2023-03-14T06:12:08;98630.84;;;13.97;63.22
65659;BME280;60181;53.258;6.932;2023-03-14T06:16:12;98631.73;;;13.98;63.19
65659;BME280;60181;53.258;6.932;2023-03-14T06:20:16;98633.70;;;13.98;63.12
65659;BME280;60181;53.258;6.932;2023-03-14T06:24:20;98639.28;;;13.98;63.22
65659;BME280;60181;53.258;6.932;2023-03-14T06:28:24;98645.11;;;13.98;63.18
65659;BME280;60181;53.258;6.932;2023-03-14T06:32:28;98650.48;;;13.99;63.19
65659;BME280;60181;53.258;6.932;2023-03-14T06:36:32;98653.67;;;13.99;63.28
65659;BME280;60181;53.258;6.932;2023-03-14T06:40:36;98657.04;;;13.99;63.19
65659;BME280;60181;53.258;6.932;2023-03-14T06:44:40;98659.52;;;14.00;63.33
65659;BME280;60181;53.258;6.932;2023-03-14T06:48:44;98663.04;;;14.00;63.22
65659;BME280;60181;53.258;6.932;2023-03-14T06:52:48;98677.14;;;14.03;63.02
65659;BME280;60181;53.258;6.932;2023-03-14T06:56:52;98692.19;;;14.12;61.99
65659;BME280;60181;53.258;6.932;2023-03-14T07:00:56;98708.04;;;14.18;61.82
65659;BME280;60181;53.258;6.932;2023-03-14T07:05:00;98724.44;;;14.22;62.02
65659;BME280;60181;53.258;6.932;2023-03-14T07:09:04;98740.76;;;14.25;62.09
65659;BME280;60181;53.258;6.932;2023-03-14T07:13:08;98757.69;;;14.27;62.13
65659;BME280;60181;53.258;6.932;2023-03-14T07:17:12;98775.09;;;14.28;62.00
65659;BME280;60181;53.258;6.932;2023-03-14T07:21:16;98794.28;;;14.29;62.04
65659;BME280;60181;53.258;6.932;2023-03-14T07:25:20;98817.02;;;14.29;62.11
65659;BME280;60181;53.258;6.932;2023-03-14T07:29:24;98836.87;;;14.29;62.14
65659;BME280;60181;53.258;6.932;2023-03-14T07:33:28;98858.11;;;14.28;62.07
65659;BME280;60181;53.258;6.932;2023-03-14T07:37:32;98878.49;;;14.28;62.09
65659;BME280;60181;53.258;6.932;2023-03-14T07:41:36;98900.73;;;14.27;62.21
65659;BME280;60181;53.258;6.932;2023-03-14T07:45:40;98922.74;;;14.25;62.27
65659;BME280;60181;53.258;6.932;2023-03-14T07:49:44;98941.22;;;14.23;62.26
65659;BME280;60181;53.258;6.932;2023-03-14T07:53:48;98960.69;;;14.21;62.11
65659;BME280;60181;53.258;6.932;2023-03-14T07:57:52;98978.06;;;14.20;61.87
65659;BME280;60181;53.258;6.932;2023-03-14T08:01:56;98993.89;;;14.20;61.85
65659;BME280;60181;53.258;6.932;2023-03-14T08:06:00;99008.54;;;14.19;61.89
65659;BME280;60181;53.258;6.932;2023-03-14T08:10:04;99026.42;;;14.19;61.91
65659;BME280;60181;53.258;6.932;2023-03-14T08:14:07;99044.30;;;14.18;61.81
65659;BME280;60181;53.258;6.932;2023-03-14T08:18:11;99061.53;;;14.18;62.23
65659;BME280;60181;53.258;6.932;2023-03-14T08:22:15;99075.04;;;14.23;62.58
65659;BME280;60181;53.258;6.932;2023-03-14T08:26:19;99088.22;;;14.33;61.32
65659;BME280;60181;53.258;6.932;2023-03-14T08:30:23;99101.28;;;14.35;62.07
65659;BME280;60181;53.258;6.932;2023-03-14T08:34:27;99114.79;;;14.35;62.16
65659;BME280;60181;53.258;6.932;2023-03-14T08:38:31;99128.13;;;14.35;62.22
65659;BME280;60181;53.258;6.932;2023-03-14T08:42:36;99141.90;;;14.35;62.07
65659;BME280;60181;53.258;6.932;2023-03-14T08:46:39;99155.42;;;14.35;61.76
65659;BME280;60181;53.258;6.932;2023-03-14T08:50:43;99168.08;;;14.36;61.82
65659;BME280;60181;53.258;6.932;2023-03-14T08:54:48;99181.91;;;14.37;61.71
65659;BME280;60181;53.258;6.932;2023-03-14T08:58:51;99195.17;;;14.38;61.75
65659;BME280;60181;53.258;6.932;2023-03-14T09:02:55;99207.95;;;14.38;61.75
65659;BME280;60181;53.258;6.932;2023-03-14T09:06:59;99219.97;;;14.38;61.49
65659;BME280;60181;53.258;6.932;2023-03-14T09:11:06;99231.41;;;14.39;61.34
65659;BME280;60181;53.258;6.932;2023-03-14T09:15:08;99243.80;;;14.41;61.34
65659;BME280;60181;53.258;6.932;2023-03-14T09:19:11;99254.83;;;14.42;61.25
65659;BME280;60181;53.258;6.932;2023-03-14T09:23:15;99266.49;;;14.45;61.18
65659;BME280;60181;53.258;6.932;2023-03-14T09:27:19;99281.20;;;14.48;61.21
65659;BME280;60181;53.258;6.932;2023-03-14T09:31:23;99298.63;;;14.64;60.40
65659;BME280;60181;53.258;6.932;2023-03-14T09:35:27;99314.70;;;14.74;60.25
65659;BME280;60181;53.258;6.932;2023-03-14T09:39:31;99331.37;;;14.79;60.39
65659;BME280;60181;53.258;6.932;2023-03-14T09:43:35;99345.04;;;14.80;60.94
65659;BME280;60181;53.258;6.932;2023-03-14T09:47:39;99356.84;;;14.79;61.23
65659;BME280;60181;53.258;6.932;2023-03-14T09:51:44;99371.60;;;14.77;61.55
65659;BME280;60181;53.258;6.932;2023-03-14T09:55:48;99387.14;;;14.75;61.63
65659;BME280;60181;53.258;6.932;2023-03-14T09:59:53;99403.89;;;14.71;61.83
65659;BME280;60181;53.258;6.932;2023-03-14T10:03:56;99419.42;;;14.68;61.69
65659;BME280;60181;53.258;6.932;2023-03-14T10:07:59;99434.42;;;14.67;61.57
65659;BME280;60181;53.258;6.932;2023-03-14T10:12:03;99450.09;;;14.66;61.65
65659;BME280;60181;53.258;6.932;2023-03-14T10:16:08;99464.94;;;14.65;61.58
65659;BME280;60181;53.258;6.932;2023-03-14T10:20:34;99478.86;;;14.64;61.59
65659;BME280;60181;53.258;6.932;2023-03-14T10:24:28;99490.73;;;14.63;61.59
65659;BME280;60181;53.258;6.932;2023-03-14T10:32:28;99516.28;;;14.63;61.38
65659;BME280;60181;53.258;6.932;2023-03-14T10:36:28;99531.45;;;14.64;61.13
65659;BME280;60181;53.258;6.932;2023-03-14T10:40:32;99545.74;;;14.66;61.05
65659;BME280;60181;53.258;6.932;2023-03-14T10:44:35;99557.12;;;14.70;60.81
65659;BME280;60181;53.258;6.932;2023-03-14T10:48:39;99569.72;;;14.73;60.66
65659;BME280;60181;53.258;6.932;2023-03-14T10:52:47;99585.18;;;14.77;60.55
65659;BME280;60181;53.258;6.932;2023-03-14T10:56:57;99598.60;;;14.80;60.46
65659;BME280;60181;53.258;6.932;2023-03-14T11:01:03;99612.17;;;14.83;60.48
65659;BME280;60181;53.258;6.932;2023-03-14T11:05:09;99626.48;;;14.85;60.36
65659;BME280;60181;53.258;6.932;2023-03-14T11:09:17;99641.30;;;14.88;60.23
65659;BME280;60181;53.258;6.932;2023-03-14T11:13:08;99655.70;;;14.91;60.31
65659;BME280;60181;53.258;6.932;2023-03-14T11:17:21;99671.62;;;14.92;60.41
65659;BME280;60181;53.258;6.932;2023-03-14T11:21:26;99686.89;;;14.91;60.49
65659;BME280;60181;53.258;6.932;2023-03-14T11:25:22;99701.78;;;14.92;60.35
65659;BME280;60181;53.258;6.932;2023-03-14T11:29:20;99714.73;;;14.93;60.41
65659;BME280;60181;53.258;6.932;2023-03-14T11:33:44;99730.33;;;14.93;60.47
65659;BME280;60181;53.258;6.932;2023-03-14T11:37:34;99745.92;;;14.93;60.32
65659;BME280;60181;53.258;6.932;2023-03-14T11:41:33;99760.05;;;14.95;60.67
65659;BME280;60181;53.258;6.932;2023-03-14T11:45:36;99774.15;;;15.12;60.21
65659;BME280;60181;53.258;6.932;2023-03-14T11:49:47;99788.26;;;15.32;59.54
65659;BME280;60181;53.258;6.932;2023-03-14T11:57:47;99815.94;;;15.60;59.26
65659;BME280;60181;53.258;6.932;2023-03-14T12:01:53;99828.49;;;15.70;59.08
65659;BME280;60181;53.258;6.932;2023-03-14T12:09:59;99852.98;;;15.84;58.96
65659;BME280;60181;53.258;6.932;2023-03-14T12:14:03;99863.45;;;15.91;58.84
65659;BME280;60181;53.258;6.932;2023-03-14T12:18:18;99872.24;;;16.04;57.95
65659;BME280;60181;53.258;6.932;2023-03-14T12:22:24;99879.61;;;16.22;57.20
65659;BME280;60181;53.258;6.932;2023-03-14T12:26:17;99888.67;;;16.38;56.81
65659;BME280;60181;53.258;6.932;2023-03-14T12:30:26;99898.77;;;16.53;56.67
65659;BME280;60181;53.258;6.932;2023-03-14T12:34:27;99907.09;;;16.65;56.61
65659;BME280;60181;53.258;6.932;2023-03-14T12:38:29;99916.66;;;16.75;56.49
65659;BME280;60181;53.258;6.932;2023-03-14T12:46:35;99938.55;;;16.92;56.33
65659;BME280;60181;53.258;6.932;2023-03-14T12:50:43;99949.06;;;16.99;56.23
65659;BME280;60181;53.258;6.932;2023-03-14T12:54:54;99957.59;;;17.06;56.05
65659;BME280;60181;53.258;6.932;2023-03-14T13:02:51;99975.52;;;17.21;55.64
65659;BME280;60181;53.258;6.932;2023-03-14T13:06:56;99984.70;;;17.28;55.49
65659;BME280;60181;53.258;6.932;2023-03-14T13:10:59;99993.37;;;17.31;55.94
65659;BME280;60181;53.258;6.932;2023-03-14T13:15:11;100002.76;;;17.19;57.90
65659;BME280;60181;53.258;6.932;2023-03-14T13:19:11;100012.59;;;16.99;58.95
65659;BME280;60181;53.258;6.932;2023-03-14T13:23:20;100021.89;;;16.78;59.33
65659;BME280;60181;53.258;6.932;2023-03-14T13:27:18;100032.90;;;16.59;59.78
65659;BME280;60181;53.258;6.932;2023-03-14T13:31:23;100046.02;;;16.42;59.90
65659;BME280;60181;53.258;6.932;2023-03-14T13:35:27;100058.25;;;16.28;59.96
65659;BME280;60181;53.258;6.932;2023-03-14T13:39:27;100067.11;;;16.16;60.09
65659;BME280;60181;53.258;6.932;2023-03-14T13:43:39;100077.84;;;16.06;60.19
65659;BME280;60181;53.258;6.932;2023-03-14T13:47:35;100087.38;;;15.98;60.30
65659;BME280;60181;53.258;6.932;2023-03-14T13:51:39;100096.75;;;15.91;60.34
65659;BME280;60181;53.258;6.932;2023-03-14T13:55:43;100107.25;;;15.84;60.53
65659;BME280;60181;53.258;6.932;2023-03-14T14:00:03;100118.25;;;15.77;60.65
65659;BME280;60181;53.258;6.932;2023-03-14T14:03:52;100128.75;;;15.73;60.53
65659;BME280;60181;53.258;6.932;2023-03-14T14:07:55;100138.33;;;15.69;60.61
65659;BME280;60181;53.258;6.932;2023-03-14T14:12:03;100146.35;;;15.65;60.53
65659;BME280;60181;53.258;6.932;2023-03-14T14:16:03;100155.13;;;15.62;60.76
65659;BME280;60181;53.258;6.932;2023-03-14T14:20:08;100167.77;;;15.58;60.76
65659;BME280;60181;53.258;6.932;2023-03-14T14:24:14;100179.33;;;15.55;60.86
65659;BME280;60181;53.258;6.932;2023-03-14T14:28:30;100191.14;;;15.51;60.91
65659;BME280;60181;53.258;6.932;2023-03-14T14:32:19;100201.53;;;15.49;60.90
65659;BME280;60181;53.258;6.932;2023-03-14T14:40:28;100219.69;;;15.47;60.75
65659;BME280;60181;53.258;6.932;2023-03-14T14:44:34;100229.93;;;15.45;60.83
65659;BME280;60181;53.258;6.932;2023-03-14T14:48:36;100239.76;;;15.44;60.82
65659;BME280;60181;53.258;6.932;2023-03-14T14:52:40;100248.58;;;15.42;60.90
65659;BME280;60181;53.258;6.932;2023-03-14T14:56:47;100259.24;;;15.40;60.86
65659;BME280;60181;53.258;6.932;2023-03-14T15:01:07;100270.29;;;15.38;61.02
65659;BME280;60181;53.258;6.932;2023-03-14T15:04:51;100280.78;;;15.36;61.07
65659;BME280;60181;53.258;6.932;2023-03-14T15:08:55;100289.86;;;15.35;60.90
65659;BME280;60181;53.258;6.932;2023-03-14T15:12:59;100299.59;;;15.35;60.80
65659;BME280;60181;53.258;6.932;2023-03-14T15:17:03;100308.82;;;15.35;60.70
65659;BME280;60181;53.258;6.932;2023-03-14T15:21:08;100318.30;;;15.35;60.75
65659;BME280;60181;53.258;6.932;2023-03-14T15:25:11;100326.39;;;15.35;60.78
65659;BME280;60181;53.258;6.932;2023-03-14T15:29:15;100334.49;;;15.35;60.83
65659;BME280;60181;53.258;6.932;2023-03-14T15:33:19;100342.83;;;15.34;60.85
65659;BME280;60181;53.258;6.932;2023-03-14T15:37:25;100350.66;;;15.32;61.07
65659;BME280;60181;53.258;6.932;2023-03-14T15:41:27;100357.69;;;15.29;61.13
65659;BME280;60181;53.258;6.932;2023-03-14T15:45:31;100362.53;;;15.27;61.04
65659;BME280;60181;53.258;6.932;2023-03-14T15:49:35;100366.49;;;15.26;61.01
65659;BME280;60181;53.258;6.932;2023-03-14T15:53:39;100371.69;;;15.25;61.04
65659;BME280;60181;53.258;6.932;2023-03-14T15:57:43;100379.21;;;15.24;61.05
65659;BME280;60181;53.258;6.932;2023-03-14T16:01:47;100384.88;;;15.22;61.12
65659;BME280;60181;53.258;6.932;2023-03-14T16:05:51;100390.06;;;15.21;60.96
65659;BME280;60181;53.258;6.932;2023-03-14T16:09:55;100396.00;;;15.21;60.86
65659;BME280;60181;53.258;6.932;2023-03-14T16:13:59;100403.77;;;15.20;60.96
65659;BME280;60181;53.258;6.932;2023-03-14T16:18:03;100411.94;;;15.19;61.08
65659;BME280;60181;53.258;6.932;2023-03-14T16:22:07;100420.59;;;15.17;61.19
65659;BME280;60181;53.258;6.932;2023-03-14T16:26:12;100435.53;;;15.15;61.28
65659;BME280;60181;53.258;6.932;2023-03-14T16:30:15;100451.28;;;15.12;61.28
65659;BME280;60181;53.258;6.932;2023-03-14T16:34:19;100463.20;;;15.11;61.25
65659;BME280;60181;53.258;6.932;2023-03-14T16:38:23;100475.17;;;15.10;61.29
65659;BME280;60181;53.258;6.932;2023-03-14T16:42:27;100486.39;;;15.08;61.35
65659;BME280;60181;53.258;6.932;2023-03-14T16:46:31;100497.25;;;15.07;61.38
65659;BME280;60181;53.258;6.932;2023-03-14T16:50:35;100506.33;;;15.05;61.39
65659;BME280;60181;53.258;6.932;2023-03-14T16:54:39;100514.83;;;15.04;61.31
65659;BME280;60181;53.258;6.932;2023-03-14T16:58:43;100521.75;;;15.03;61.27
65659;BME280;60181;53.258;6.932;2023-03-14T17:02:47;100529.58;;;15.01;61.34
65659;BME280;60181;53.258;6.932;2023-03-14T17:06:51;100536.57;;;15.00;61.43
65659;BME280;60181;53.258;6.932;2023-03-14T17:10:55;100544.14;;;14.97;61.48
65659;BME280;60181;53.258;6.932;2023-03-14T17:14:59;100550.15;;;14.95;61.44
65659;BME280;60181;53.258;6.932;2023-03-14T17:19:03;100555.74;;;14.93;61.52
65659;BME280;60181;53.258;6.932;2023-03-14T17:23:07;100560.71;;;14.91;61.61
65659;BME280;60181;53.258;6.932;2023-03-14T17:27:11;100564.64;;;14.89;61.64
65659;BME280;60181;53.258;6.932;2023-03-14T17:31:16;100569.00;;;14.87;61.67
65659;BME280;60181;53.258;6.932;2023-03-14T17:35:19;100581.09;;;14.85;61.64
65659;BME280;60181;53.258;6.932;2023-03-14T17:39:23;100596.26;;;14.83;61.63
65659;BME280;60181;53.258;6.932;2023-03-14T17:43:27;100611.33;;;14.81;61.65
65659;BME280;60181;53.258;6.932;2023-03-14T17:47:31;100624.36;;;14.80;61.72
65659;BME280;60181;53.258;6.932;2023-03-14T17:51:35;100634.80;;;14.79;61.71
65659;BME280;60181;53.258;6.932;2023-03-14T17:55:39;100642.50;;;14.80;61.31
65659;BME280;60181;53.258;6.932;2023-03-14T17:59:43;100648.35;;;14.81;61.36
65659;BME280;60181;53.258;6.932;2023-03-14T18:03:47;100654.38;;;14.80;61.50
65659;BME280;60181;53.258;6.932;2023-03-14T18:07:51;100661.13;;;14.79;61.53
65659;BME280;60181;53.258;6.932;2023-03-14T18:11:55;100667.63;;;14.78;61.54
65659;BME280;60181;53.258;6.932;2023-03-14T18:15:59;100673.72;;;14.77;61.55
65659;BME280;60181;53.258;6.932;2023-03-14T18:20:03;100679.97;;;14.76;61.60
65659;BME280;60181;53.258;6.932;2023-03-14T18:24:07;100686.31;;;14.75;61.57
65659;BME280;60181;53.258;6.932;2023-03-14T18:28:11;100690.18;;;14.73;61.55
65659;BME280;60181;53.258;6.932;2023-03-14T18:32:15;100693.80;;;14.72;61.54
65659;BME280;60181;53.258;6.932;2023-03-14T18:36:19;100698.33;;;14.71;61.58
65659;BME280;60181;53.258;6.932;2023-03-14T18:40:23;100701.59;;;14.70;61.57
65659;BME280;60181;53.258;6.932;2023-03-14T18:44:27;100705.45;;;14.68;61.55
65659;BME280;60181;53.258;6.932;2023-03-14T18:48:31;100708.80;;;14.67;61.56
65659;BME280;60181;53.258;6.932;2023-03-14T18:52:35;100712.24;;;14.66;61.55
65659;BME280;60181;53.258;6.932;2023-03-14T18:56:39;100716.94;;;14.65;61.56
65659;BME280;60181;53.258;6.932;2023-03-14T19:00:43;100720.72;;;14.64;61.54
65659;BME280;60181;53.258;6.932;2023-03-14T19:04:47;100724.25;;;14.62;61.57
65659;BME280;60181;53.258;6.932;2023-03-14T19:08:51;100728.20;;;14.61;61.53
65659;BME280;60181;53.258;6.932;2023-03-14T19:12:55;100730.82;;;14.60;61.50
65659;BME280;60181;53.258;6.932;2023-03-14T19:21:04;100734.99;;;14.66;60.56
65659;BME280;60181;53.258;6.932;2023-03-14T19:25:07;100736.36;;;14.69;61.02
65659;BME280;60181;53.258;6.932;2023-03-14T19:29:11;100736.66;;;14.67;61.33
65659;BME280;60181;53.258;6.932;2023-03-14T19:33:15;100737.61;;;14.76;60.21
65659;BME280;60181;53.258;6.932;2023-03-14T19:37:19;100738.70;;;14.80;60.65
65659;BME280;60181;53.258;6.932;2023-03-14T19:41:23;100738.53;;;14.78;61.23
65659;BME280;60181;53.258;6.932;2023-03-14T19:45:27;100738.09;;;14.75;61.39
65659;BME280;60181;53.258;6.932;2023-03-14T19:49:31;100737.15;;;14.71;61.44
65659;BME280;60181;53.258;6.932;2023-03-14T19:53:35;100737.52;;;14.69;61.49
65659;BME280;60181;53.258;6.932;2023-03-14T19:57:39;100738.45;;;14.66;61.46
65659;BME280;60181;53.258;6.932;2023-03-14T20:01:43;100739.36;;;14.65;61.46
65659;BME280;60181;53.258;6.932;2023-03-14T20:05:46;100741.63;;;14.63;61.43
65659;BME280;60181;53.258;6.932;2023-03-14T20:09:50;100744.67;;;14.62;61.42
65659;BME280;60181;53.258;6.932;2023-03-14T20:13:54;100749.61;;;14.61;61.43
65659;BME280;60181;53.258;6.932;2023-03-14T20:17:58;100754.86;;;14.60;61.48
65659;BME280;60181;53.258;6.932;2023-03-14T20:22:02;100760.99;;;14.67;60.53
65659;BME280;60181;53.258;6.932;2023-03-14T20:26:06;100767.49;;;14.72;60.59
65659;BME280;60181;53.258;6.932;2023-03-14T20:30:11;100772.94;;;14.73;60.92
65659;BME280;60181;53.258;6.932;2023-03-14T20:34:14;100777.70;;;14.72;60.99
65659;BME280;60181;53.258;6.932;2023-03-14T20:38:18;100783.39;;;14.70;61.09
65659;BME280;60181;53.258;6.932;2023-03-14T20:42:22;100787.56;;;14.68;61.14
65659;BME280;60181;53.258;6.932;2023-03-14T20:46:26;100791.30;;;14.66;61.13
65659;BME280;60181;53.258;6.932;2023-03-14T20:50:30;100795.17;;;14.64;61.11
65659;BME280;60181;53.258;6.932;2023-03-14T20:54:34;100797.85;;;14.63;61.11
65659;BME280;60181;53.258;6.932;2023-03-14T20:58:38;100799.50;;;14.62;61.09
65659;BME280;60181;53.258;6.932;2023-03-14T21:02:42;100801.71;;;14.60;61.09
65659;BME280;60181;53.258;6.932;2023-03-14T21:06:46;100802.61;;;14.59;61.05
65659;BME280;60181;53.258;6.932;2023-03-14T21:10:51;100804.16;;;14.58;61.06
65659;BME280;60181;53.258;6.932;2023-03-14T21:14:54;100806.84;;;14.56;61.07
65659;BME280;60181;53.258;6.932;2023-03-14T21:18:58;100809.99;;;14.55;61.05
65659;BME280;60181;53.258;6.932;2023-03-14T21:23:03;100812.78;;;14.54;61.05
65659;BME280;60181;53.258;6.932;2023-03-14T21:27:06;100815.73;;;14.53;61.02
65659;BME280;60181;53.258;6.932;2023-03-14T21:31:10;100816.71;;;14.53;61.02
65659;BME280;60181;53.258;6.932;2023-03-14T21:35:14;100818.42;;;14.51;61.04
65659;BME280;60181;53.258;6.932;2023-03-14T21:39:18;100819.39;;;14.50;61.01
65659;BME280;60181;53.258;6.932;2023-03-14T21:43:23;100820.70;;;14.49;61.03
65659;BME280;60181;53.258;6.932;2023-03-14T21:47:26;100822.74;;;14.49;61.01
65659;BME280;60181;53.258;6.932;2023-03-14T21:51:30;100823.47;;;14.47;61.01
65659;BME280;60181;53.258;6.932;2023-03-14T21:55:34;100822.53;;;14.50;60.47
65659;BME280;60181;53.258;6.932;2023-03-14T21:59:38;100821.66;;;14.52;60.67